sensor_id;sensor_type;location;lat;lon;timestamp;pressure;altitude;pressure_sealevel;temperature;humidity
74529;BME280;63009;52.584;5.932;2023-01-28T00:01:38;103080.97;;;1.61;85.29
74529;BME280;63009;52.584;5.932;2023-01-28T00:04:03;103088.88;;;1.68;84.63
74529;BME280;63009;52.584;5.932;2023-01-28T00:06:28;103082.75;;;1.65;85.01
74529;BME280;63009;52.584;5.932;2023-01-28T00:08:54;103078.41;;;1.65;85.02
74529;BME280;63009;52.584;5.932;2023-01-28T00:11:20;103088.84;;;1.67;84.33
74529;BME280;63009;52.584;5.932;2023-01-28T00:13:52;103085.38;;;1.68;84.41
74529;BME280;63009;52.584;5.932;2023-01-28T00:16:18;103088.84;;;1.67;84.47
74529;BME280;63009;52.584;5.932;2023-01-28T00:18:43;103088.78;;;1.61;85.10
74529;BME280;63009;52.584;5.932;2023-01-28T00:21:10;103100.06;;;1.61;85.30
74529;BME280;63009;52.584;5.932;2023-01-28T00:23:38;103094.00;;;1.61;86.24
74529;BME280;63009;52.584;5.932;2023-01-28T00:26:10;103083.44;;;1.55;87.79
74529;BME280;63009;52.584;5.932;2023-01-28T00:28:35;103091.34;;;1.59;89.42
74529;BME280;63009;52.584;5.932;2023-01-28T00:31:27;103096.56;;;1.58;90.04
74529;BME280;63009;52.584;5.932;2023-01-28T00:33:53;103088.66;;;1.55;90.29
74529;BME280;63009;52.584;5.932;2023-01-28T00:36:22;103068.63;;;1.51;90.41
74529;BME280;63009;52.584;5.932;2023-01-28T00:38:55;103072.13;;;1.51;89.17
74529;BME280;63009;52.584;5.932;2023-01-28T00:41:23;103086.91;;;1.54;87.00
74529;BME280;63009;52.584;5.932;2023-01-28T00:43:50;103080.03;;;1.56;85.75
74529;BME280;63009;52.584;5.932;2023-01-28T00:46:16;103081.69;;;1.54;86.14
74529;BME280;63009;52.584;5.932;2023-01-28T00:48:42;103079.97;;;1.54;87.12
74529;BME280;63009;52.584;5.932;2023-01-28T00:51:09;103073.88;;;1.52;87.55
74529;BME280;63009;52.584;5.932;2023-01-28T00:53:35;103075.56;;;1.50;87.81
74529;BME280;63009;52.584;5.932;2023-01-28T00:56:01;103067.78;;;1.52;87.99
74529;BME280;63009;52.584;5.932;2023-01-28T00:58:26;103063.44;;;1.52;87.68
74529;BME280;63009;52.584;5.932;2023-01-28T01:00:52;103063.41;;;1.49;87.52
74529;BME280;63009;52.584;5.932;2023-01-28T01:03:18;103067.72;;;1.47;87.19
74529;BME280;63009;52.584;5.932;2023-01-28T01:05:44;103079.06;;;1.51;85.71
74529;BME280;63009;52.584;5.932;2023-01-28T01:08:09;103077.34;;;1.53;85.02
74529;BME280;63009;52.584;5.932;2023-01-28T01:10:36;103079.94;;;1.53;84.82
74529;BME280;63009;52.584;5.932;2023-01-28T01:13:03;103073.78;;;1.44;85.47
74529;BME280;63009;52.584;5.932;2023-01-28T01:15:29;103073.78;;;1.44;85.52
74529;BME280;63009;52.584;5.932;2023-01-28T01:17:54;103065.88;;;1.40;85.60
74529;BME280;63009;52.584;5.932;2023-01-28T01:20:23;103076.34;;;1.43;86.75
74529;BME280;63009;52.584;5.932;2023-01-28T01:22:48;103082.53;;;1.49;87.75
74529;BME280;63009;52.584;5.932;2023-01-28T01:25:15;103082.47;;;1.45;87.08
74529;BME280;63009;52.584;5.932;2023-01-28T01:27:41;103094.69;;;1.51;85.33
74529;BME280;63009;52.584;5.932;2023-01-28T01:30:06;103078.19;;;1.52;84.79
74529;BME280;63009;52.584;5.932;2023-01-28T01:32:33;103087.72;;;1.49;85.49
74529;BME280;63009;52.584;5.932;2023-01-28T01:35:03;103100.72;;;1.46;86.84
74529;BME280;63009;52.584;5.932;2023-01-28T01:37:31;103073.56;;;1.32;87.46
74529;BME280;63009;52.584;5.932;2023-01-28T01:39:56;103064.88;;;1.32;87.33
74529;BME280;63009;52.584;5.932;2023-01-28T01:42:23;103077.13;;;1.39;87.45
74529;BME280;63009;52.584;5.932;2023-01-28T01:44:56;103090.16;;;1.39;87.35
74529;BME280;63009;52.584;5.932;2023-01-28T01:47:26;103091.00;;;1.36;86.97
74529;BME280;63009;52.584;5.932;2023-01-28T01:49:53;103098.09;;;1.45;85.94
74529;BME280;63009;52.584;5.932;2023-01-28T01:52:25;103100.66;;;1.42;85.71
74529;BME280;63009;52.584;5.932;2023-01-28T01:54:55;103113.69;;;1.42;86.19
74529;BME280;63009;52.584;5.932;2023-01-28T01:57:26;103099.72;;;1.40;85.32
74529;BME280;63009;52.584;5.932;2023-01-28T01:59:53;103104.91;;;1.38;84.12
74529;BME280;63009;52.584;5.932;2023-01-28T02:02:18;103098.84;;;1.39;84.85
74529;BME280;63009;52.584;5.932;2023-01-28T02:04:44;103085.75;;;1.33;83.90
74529;BME280;63009;52.584;5.932;2023-01-28T02:07:15;103099.72;;;1.40;84.35
74529;BME280;63009;52.584;5.932;2023-01-28T02:09:41;103099.66;;;1.34;85.11
74529;BME280;63009;52.584;5.932;2023-01-28T02:12:07;103103.97;;;1.32;86.31
74529;BME280;63009;52.584;5.932;2023-01-28T02:14:37;103096.97;;;1.29;86.90
74529;BME280;63009;52.584;5.932;2023-01-28T02:17:03;103118.75;;;1.34;87.39
74529;BME280;63009;52.584;5.932;2023-01-28T02:19:36;103117.84;;;1.32;87.25
74529;BME280;63009;52.584;5.932;2023-01-28T02:22:20;103092.47;;;1.21;87.77
74529;BME280;63009;52.584;5.932;2023-01-28T02:25:01;103116.97;;;1.32;87.89
74529;BME280;63009;52.584;5.932;2023-01-28T02:30:39;103116.09;;;1.30;86.85
74529;BME280;63009;52.584;5.932;2023-01-28T02:33:10;103122.13;;;1.27;86.79
74529;BME280;63009;52.584;5.932;2023-01-28T02:35:42;103122.94;;;1.26;87.40
74529;BME280;63009;52.584;5.932;2023-01-28T02:38:19;103120.28;;;1.22;87.72
74529;BME280;63009;52.584;5.932;2023-01-28T02:40:52;103122.88;;;1.22;86.87
74529;BME280;63009;52.584;5.932;2023-01-28T02:43:35;103108.09;;;1.21;87.80
74529;BME280;63009;52.584;5.932;2023-01-28T02:46:10;103112.47;;;1.23;87.14
74529;BME280;63009;52.584;5.932;2023-01-28T02:48:55;103108.09;;;1.19;86.13
74529;BME280;63009;52.584;5.932;2023-01-28T02:51:41;103100.31;;;1.22;83.97
74529;BME280;63009;52.584;5.932;2023-01-28T02:57:08;103100.28;;;1.19;83.40
74529;BME280;63009;52.584;5.932;2023-01-28T03:00:09;103100.34;;;1.24;83.92
74529;BME280;63009;52.584;5.932;2023-01-28T03:03:28;103111.59;;;1.23;84.50
74529;BME280;63009;52.584;5.932;2023-01-28T03:05:51;103099.47;;;1.23;85.11
74529;BME280;63009;52.584;5.932;2023-01-28T03:08:33;103105.56;;;1.25;83.78
74529;BME280;63009;52.584;5.932;2023-01-28T03:11:19;103098.53;;;1.18;82.73
74529;BME280;63009;52.584;5.932;2023-01-28T03:14:05;103101.09;;;1.15;82.99
74529;BME280;63009;52.584;5.932;2023-01-28T03:16:50;103097.66;;;1.19;84.22
74529;BME280;63009;52.584;5.932;2023-01-28T03:19:35;103089.81;;;1.16;83.14
74529;BME280;63009;52.584;5.932;2023-01-28T03:22:20;103101.97;;;1.17;82.44
74529;BME280;63009;52.584;5.932;2023-01-28T03:25:07;103095.03;;;1.16;81.71
74529;BME280;63009;52.584;5.932;2023-01-28T03:27:56;103093.31;;;1.18;82.59
74529;BME280;63009;52.584;5.932;2023-01-28T03:30:49;103108.91;;;1.15;83.17
74529;BME280;63009;52.584;5.932;2023-01-28T03:33:38;103100.97;;;1.10;84.56
74529;BME280;63009;52.584;5.932;2023-01-28T03:36:23;103094.91;;;1.10;84.71
74529;BME280;63009;52.584;5.932;2023-01-28T03:39:07;103106.31;;;1.16;84.82
74529;BME280;63009;52.584;5.932;2023-01-28T03:41:32;103105.44;;;1.16;85.41
74529;BME280;63009;52.584;5.932;2023-01-28T03:43:57;103105.41;;;1.13;85.21
74529;BME280;63009;52.584;5.932;2023-01-28T03:46:42;103087.97;;;1.12;85.68
74529;BME280;63009;52.584;5.932;2023-01-28T03:49:07;103104.59;;;1.18;86.40
74529;BME280;63009;52.584;5.932;2023-01-28T03:51:33;103107.06;;;1.11;86.68
74529;BME280;63009;52.584;5.932;2023-01-28T03:53:58;103101.84;;;1.11;86.93
74529;BME280;63009;52.584;5.932;2023-01-28T03:56:23;103102.72;;;1.11;87.52
74529;BME280;63009;52.584;5.932;2023-01-28T03:58:50;103094.91;;;1.10;87.42
74529;BME280;63009;52.584;5.932;2023-01-28T04:01:20;103103.53;;;1.06;87.81
74529;BME280;63009;52.584;5.932;2023-01-28T04:03:45;103108.75;;;1.07;86.64
74529;BME280;63009;52.584;5.932;2023-01-28T04:06:11;103123.50;;;1.07;87.59
74529;BME280;63009;52.584;5.932;2023-01-28T04:08:36;103113.03;;;1.04;87.07
74529;BME280;63009;52.584;5.932;2023-01-28T04:11:01;103120.88;;;1.05;87.02
74529;BME280;63009;52.584;5.932;2023-01-28T04:13:45;103127.91;;;1.11;87.37
74529;BME280;63009;52.584;5.932;2023-01-28T04:16:12;103128.78;;;1.11;87.00
74529;BME280;63009;52.584;5.932;2023-01-28T04:18:38;103125.38;;;1.14;87.56
74529;BME280;63009;52.584;5.932;2023-01-28T04:21:03;103124.38;;;1.07;88.49
74529;BME280;63009;52.584;5.932;2023-01-28T04:23:28;103121.69;;;1.03;88.63
74529;BME280;63009;52.584;5.932;2023-01-28T04:25:54;103143.66;;;1.17;86.15
74529;BME280;63009;52.584;5.932;2023-01-28T04:28:19;103132.19;;;1.07;85.74
74529;BME280;63009;52.584;5.932;2023-01-28T04:30:44;103140.94;;;1.12;86.32
74529;BME280;63009;52.584;5.932;2023-01-28T04:33:10;103132.13;;;1.04;86.22
74529;BME280;63009;52.584;5.932;2023-01-28T04:35:35;103131.31;;;1.07;86.48
74529;BME280;63009;52.584;5.932;2023-01-28T04:38:00;103136.53;;;1.08;86.24
74529;BME280;63009;52.584;5.932;2023-01-28T04:40:25;103136.56;;;1.10;86.42
74529;BME280;63009;52.584;5.932;2023-01-28T04:42:54;103110.44;;;1.05;85.67
74529;BME280;63009;52.584;5.932;2023-01-28T04:45:20;103097.41;;;1.04;85.50
74529;BME280;63009;52.584;5.932;2023-01-28T04:47:45;103116.56;;;1.07;85.68
74529;BME280;63009;52.584;5.932;2023-01-28T04:50:11;103115.63;;;1.04;86.90
74529;BME280;63009;52.584;5.932;2023-01-28T04:52:36;103125.97;;;0.99;87.36
74529;BME280;63009;52.584;5.932;2023-01-28T04:55:01;103116.28;;;0.92;87.38
74529;BME280;63009;52.584;5.932;2023-01-28T04:57:27;103112.88;;;0.96;87.48
74529;BME280;63009;52.584;5.932;2023-01-28T04:59:52;103104.16;;;0.93;87.86
74529;BME280;63009;52.584;5.932;2023-01-28T05:02:18;103109.31;;;0.89;88.10
74529;BME280;63009;52.584;5.932;2023-01-28T05:04:43;103105.84;;;0.89;87.94
74529;BME280;63009;52.584;5.932;2023-01-28T05:07:09;103103.34;;;0.97;86.94
74529;BME280;63009;52.584;5.932;2023-01-28T05:09:35;103104.09;;;0.89;87.89
74529;BME280;63009;52.584;5.932;2023-01-28T05:12:01;103115.41;;;0.92;88.18
74529;BME280;63009;52.584;5.932;2023-01-28T05:14:26;103119.59;;;0.83;88.71
74529;BME280;63009;52.584;5.932;2023-01-28T05:16:51;103125.03;;;0.96;88.00
74529;BME280;63009;52.584;5.932;2023-01-28T05:19:16;103121.53;;;0.95;87.41
74529;BME280;63009;52.584;5.932;2023-01-28T05:21:42;103120.66;;;0.93;87.38
74529;BME280;63009;52.584;5.932;2023-01-28T05:24:07;103126.69;;;0.91;87.81
74529;BME280;63009;52.584;5.932;2023-01-28T05:26:32;103132.75;;;0.89;87.53
74529;BME280;63009;52.584;5.932;2023-01-28T05:28:58;103131.81;;;0.86;88.27
74529;BME280;63009;52.584;5.932;2023-01-28T05:31:23;103120.41;;;0.81;87.30
74529;BME280;63009;52.584;5.932;2023-01-28T05:33:48;103116.06;;;0.80;86.64
74529;BME280;63009;52.584;5.932;2023-01-28T05:36:13;103128.28;;;0.84;87.54
74529;BME280;63009;52.584;5.932;2023-01-28T05:38:39;103121.28;;;0.80;86.81
74529;BME280;63009;52.584;5.932;2023-01-28T05:41:04;103126.47;;;0.80;87.28
74529;BME280;63009;52.584;5.932;2023-01-28T05:43:29;103129.03;;;0.77;87.12
74529;BME280;63009;52.584;5.932;2023-01-28T05:45:54;103113.41;;;0.77;87.51
74529;BME280;63009;52.584;5.932;2023-01-28T05:48:20;103126.47;;;0.80;87.44
74529;BME280;63009;52.584;5.932;2023-01-28T05:50:46;103122.19;;;0.83;87.02
74529;BME280;63009;52.584;5.932;2023-01-28T05:53:11;103123.03;;;0.82;86.42
74529;BME280;63009;52.584;5.932;2023-01-28T05:55:36;103118.63;;;0.78;87.77
74529;BME280;63009;52.584;5.932;2023-01-28T05:58:02;103127.31;;;0.77;87.99
74529;BME280;63009;52.584;5.932;2023-01-28T06:00:27;103123.78;;;0.75;87.62
74529;BME280;63009;52.584;5.932;2023-01-28T06:02:52;103111.50;;;0.68;88.31
74529;BME280;63009;52.584;5.932;2023-01-28T06:05:18;103105.50;;;0.71;86.56
74529;BME280;63009;52.584;5.932;2023-01-28T06:07:47;103107.34;;;0.78;87.13
74529;BME280;63009;52.584;5.932;2023-01-28T06:10:13;103104.78;;;0.79;87.54
74529;BME280;63009;52.584;5.932;2023-01-28T06:12:39;103102.13;;;0.76;88.29
74529;BME280;63009;52.584;5.932;2023-01-28T06:15:04;103116.91;;;0.79;88.54
74529;BME280;63009;52.584;5.932;2023-01-28T06:17:30;103116.88;;;0.77;86.74
74529;BME280;63009;52.584;5.932;2023-01-28T06:19:55;103118.59;;;0.75;86.85
74529;BME280;63009;52.584;5.932;2023-01-28T06:22:21;103109.06;;;0.76;87.46
74529;BME280;63009;52.584;5.932;2023-01-28T06:24:46;103121.16;;;0.74;89.04
74529;BME280;63009;52.584;5.932;2023-01-28T06:27:11;103121.16;;;0.72;89.16
74529;BME280;63009;52.584;5.932;2023-01-28T06:29:37;103128.13;;;0.75;88.66
74529;BME280;63009;52.584;5.932;2023-01-28T06:32:02;103122.03;;;0.74;88.60
74529;BME280;63009;52.584;5.932;2023-01-28T06:34:28;103126.38;;;0.74;87.21
74529;BME280;63009;52.584;5.932;2023-01-28T06:36:53;103127.25;;;0.74;87.34
74529;BME280;63009;52.584;5.932;2023-01-28T06:39:19;103129.81;;;0.71;86.28
74529;BME280;63009;52.584;5.932;2023-01-28T06:41:46;103127.94;;;0.66;87.35
74529;BME280;63009;52.584;5.932;2023-01-28T06:44:11;103134.06;;;0.69;86.90
74529;BME280;63009;52.584;5.932;2023-01-28T06:46:37;103136.75;;;0.72;87.45
74529;BME280;63009;52.584;5.932;2023-01-28T06:49:02;103148.78;;;0.67;88.07
74529;BME280;63009;52.584;5.932;2023-01-28T06:51:27;103133.13;;;0.64;88.20
74529;BME280;63009;52.584;5.932;2023-01-28T06:53:53;103129.72;;;0.68;87.63
74529;BME280;63009;52.584;5.932;2023-01-28T06:56:18;103130.56;;;0.67;87.20
74529;BME280;63009;52.584;5.932;2023-01-28T06:58:43;103141.81;;;0.65;87.50
74529;BME280;63009;52.584;5.932;2023-01-28T07:01:08;103134.84;;;0.64;87.68
74529;BME280;63009;52.584;5.932;2023-01-28T07:03:35;103135.75;;;0.66;87.70
74529;BME280;63009;52.584;5.932;2023-01-28T07:06:00;103149.63;;;0.66;87.59
74529;BME280;63009;52.584;5.932;2023-01-28T07:08:26;103151.31;;;0.63;88.12
74529;BME280;63009;52.584;5.932;2023-01-28T07:10:51;103145.16;;;0.59;88.46
74529;BME280;63009;52.584;5.932;2023-01-28T07:13:16;103145.25;;;0.64;88.13
74529;BME280;63009;52.584;5.932;2023-01-28T07:15:41;103140.88;;;0.61;88.14
74529;BME280;63009;52.584;5.932;2023-01-28T07:18:07;103151.28;;;0.61;88.04
74529;BME280;63009;52.584;5.932;2023-01-28T07:20:32;103161.75;;;0.64;88.32
74529;BME280;63009;52.584;5.932;2023-01-28T07:22:57;103164.25;;;0.59;87.75
74529;BME280;63009;52.584;5.932;2023-01-28T07:25:22;103156.47;;;0.59;87.55
74529;BME280;63009;52.584;5.932;2023-01-28T07:27:49;103159.91;;;0.58;87.70
74529;BME280;63009;52.584;5.932;2023-01-28T07:30:16;103162.59;;;0.63;87.39
74529;BME280;63009;52.584;5.932;2023-01-28T07:32:41;103158.22;;;0.61;87.26
74529;BME280;63009;52.584;5.932;2023-01-28T07:35:07;103158.19;;;0.59;87.26
74529;BME280;63009;52.584;5.932;2023-01-28T07:37:32;103173.91;;;0.65;87.40
74529;BME280;63009;52.584;5.932;2023-01-28T07:39:58;103135.31;;;0.43;87.01
74529;BME280;63009;52.584;5.932;2023-01-28T07:42:23;103168.66;;;0.62;86.43
74529;BME280;63009;52.584;5.932;2023-01-28T07:44:48;103169.50;;;0.61;86.09
74529;BME280;63009;52.584;5.932;2023-01-28T07:47:14;103177.13;;;0.53;86.77
74529;BME280;63009;52.584;5.932;2023-01-28T07:49:39;103165.78;;;0.50;86.85
74529;BME280;63009;52.584;5.932;2023-01-28T07:52:05;103164.94;;;0.51;87.12
74529;BME280;63009;52.584;5.932;2023-01-28T07:54:31;103164.91;;;0.49;87.24
74529;BME280;63009;52.584;5.932;2023-01-28T07:56:56;103160.50;;;0.45;87.45
74529;BME280;63009;52.584;5.932;2023-01-28T07:59:21;103164.91;;;0.49;87.28
74529;BME280;63009;52.584;5.932;2023-01-28T08:01:47;103188.28;;;0.46;87.80
74529;BME280;63009;52.584;5.932;2023-01-28T08:04:12;103170.88;;;0.44;88.58
74529;BME280;63009;52.584;5.932;2023-01-28T08:06:37;103172.63;;;0.45;88.28
74529;BME280;63009;52.584;5.932;2023-01-28T08:09:04;103165.59;;;0.41;88.89
74529;BME280;63009;52.584;5.932;2023-01-28T08:11:31;103176.09;;;0.45;88.63
74529;BME280;63009;52.584;5.932;2023-01-28T08:13:56;103171.72;;;0.43;87.87
74529;BME280;63009;52.584;5.932;2023-01-28T08:16:21;103164.69;;;0.39;88.71
74529;BME280;63009;52.584;5.932;2023-01-28T08:18:47;103156.81;;;0.36;88.63
74529;BME280;63009;52.584;5.932;2023-01-28T08:21:12;103165.63;;;0.42;89.08
74529;BME280;63009;52.584;5.932;2023-01-28T08:23:37;103168.19;;;0.41;89.38
74529;BME280;63009;52.584;5.932;2023-01-28T08:26:03;103178.69;;;0.44;89.26
74529;BME280;63009;52.584;5.932;2023-01-28T08:28:28;103174.41;;;0.47;89.94
74529;BME280;63009;52.584;5.932;2023-01-28T08:30:53;103167.50;;;0.48;89.92
74529;BME280;63009;52.584;5.932;2023-01-28T08:33:19;103171.78;;;0.46;89.33
74529;BME280;63009;52.584;5.932;2023-01-28T08:35:44;103184.19;;;0.59;89.45
74529;BME280;63009;52.584;5.932;2023-01-28T08:38:11;103196.47;;;0.66;89.26
74529;BME280;63009;52.584;5.932;2023-01-28T08:40:37;103187.06;;;0.71;88.80
74529;BME280;63009;52.584;5.932;2023-01-28T08:43:03;103195.03;;;0.80;88.34
74529;BME280;63009;52.584;5.932;2023-01-28T08:45:28;103189.13;;;0.89;88.42
74529;BME280;63009;52.584;5.932;2023-01-28T08:48:00;103203.25;;;1.02;88.22
74529;BME280;63009;52.584;5.932;2023-01-28T08:50:28;103194.69;;;1.09;87.30
74529;BME280;63009;52.584;5.932;2023-01-28T08:52:57;103201.78;;;1.16;87.16
74529;BME280;63009;52.584;5.932;2023-01-28T08:55:23;103200.13;;;1.19;86.25
74529;BME280;63009;52.584;5.932;2023-01-28T08:57:49;103203.56;;;1.17;84.67
74529;BME280;63009;52.584;5.932;2023-01-28T09:00:14;103208.78;;;1.18;85.33
74529;BME280;63009;52.584;5.932;2023-01-28T09:02:40;103208.66;;;1.12;85.11
74529;BME280;63009;52.584;5.932;2023-01-28T09:05:05;103213.06;;;1.15;85.05
74529;BME280;63009;52.584;5.932;2023-01-28T09:07:34;103215.66;;;1.13;85.09
74529;BME280;63009;52.584;5.932;2023-01-28T09:09:59;103217.44;;;1.16;86.24
74529;BME280;63009;52.584;5.932;2023-01-28T09:12:24;103226.13;;;1.18;84.83
74529;BME280;63009;52.584;5.932;2023-01-28T09:14:50;103213.97;;;1.17;84.00
74529;BME280;63009;52.584;5.932;2023-01-28T09:17:16;103224.38;;;1.15;85.00
74529;BME280;63009;52.584;5.932;2023-01-28T09:19:41;103227.03;;;1.20;85.21
74529;BME280;63009;52.584;5.932;2023-01-28T09:22:06;103232.22;;;1.18;85.55
74529;BME280;63009;52.584;5.932;2023-01-28T09:24:32;103233.09;;;1.19;85.96
74529;BME280;63009;52.584;5.932;2023-01-28T09:26:57;103233.91;;;1.15;85.72
74529;BME280;63009;52.584;5.932;2023-01-28T09:29:22;103243.59;;;1.24;86.47
74529;BME280;63009;52.584;5.932;2023-01-28T09:31:47;103226.25;;;1.24;86.32
74529;BME280;63009;52.584;5.932;2023-01-28T09:34:13;103229.03;;;1.33;84.52
74529;BME280;63009;52.584;5.932;2023-01-28T09:36:38;103234.47;;;1.45;84.06
74529;BME280;63009;52.584;5.932;2023-01-28T09:39:04;103249.41;;;1.56;83.72
74529;BME280;63009;52.584;5.932;2023-01-28T09:47:01;103246.53;;;1.92;83.66
74529;BME280;63009;52.584;5.932;2023-01-28T09:49:34;103241.50;;;2.04;84.04
74529;BME280;63009;52.584;5.932;2023-01-28T09:52:01;103249.50;;;2.13;83.54
74529;BME280;63009;52.584;5.932;2023-01-28T09:54:40;103245.25;;;2.23;82.71
74529;BME280;63009;52.584;5.932;2023-01-28T09:57:13;103248.94;;;2.35;82.89
74529;BME280;63009;52.584;5.932;2023-01-28T09:59:41;103247.31;;;2.44;82.41
74529;BME280;63009;52.584;5.932;2023-01-28T10:08:33;103242.03;;;3.09;80.77
74529;BME280;63009;52.584;5.932;2023-01-28T10:14:07;103237.34;;;3.62;79.17
74529;BME280;63009;52.584;5.932;2023-01-28T10:19:09;103243.84;;;4.10;76.70
74529;BME280;63009;52.584;5.932;2023-01-28T10:21:40;103241.34;;;4.31;76.86
74529;BME280;63009;52.584;5.932;2023-01-28T10:24:17;103232.69;;;4.38;74.74
74529;BME280;63009;52.584;5.932;2023-01-28T10:26:46;103238.91;;;4.59;75.32
74529;BME280;63009;52.584;5.932;2023-01-28T10:29:23;103237.22;;;4.74;75.08
74529;BME280;63009;52.584;5.932;2023-01-28T10:31:56;103242.50;;;4.88;74.55
74529;BME280;63009;52.584;5.932;2023-01-28T10:34:23;103239.94;;;5.02;74.38
74529;BME280;63009;52.584;5.932;2023-01-28T10:36:49;103219.88;;;5.12;73.41
74529;BME280;63009;52.584;5.932;2023-01-28T10:39:16;103211.19;;;5.23;74.40
74529;BME280;63009;52.584;5.932;2023-01-28T10:41:42;103203.31;;;5.25;70.28
74529;BME280;63009;52.584;5.932;2023-01-28T10:46:58;103170.97;;;5.12;69.08
74529;BME280;63009;52.584;5.932;2023-01-28T10:49:26;103178.81;;;5.14;70.34
74529;BME280;63009;52.584;5.932;2023-01-28T10:51:52;103189.34;;;5.21;69.57
74529;BME280;63009;52.584;5.932;2023-01-28T10:54:25;103172.72;;;5.27;70.43
74529;BME280;63009;52.584;5.932;2023-01-28T10:56:58;103160.47;;;5.33;71.96
74529;BME280;63009;52.584;5.932;2023-01-28T11:01:53;103144.78;;;5.64;70.37
74529;BME280;63009;52.584;5.932;2023-01-28T11:04:29;103142.13;;;5.81;68.00
74529;BME280;63009;52.584;5.932;2023-01-28T11:09:21;103126.38;;;5.76;67.59
74529;BME280;63009;52.584;5.932;2023-01-28T11:11:47;103105.41;;;5.59;67.26
74529;BME280;63009;52.584;5.932;2023-01-28T11:14:25;103109.78;;;5.66;67.68
74529;BME280;63009;52.584;5.932;2023-01-28T11:16:53;103106.28;;;5.60;67.56
74529;BME280;63009;52.584;5.932;2023-01-28T11:19:22;103111.53;;;5.64;68.14
74529;BME280;63009;52.584;5.932;2023-01-28T11:21:54;103105.41;;;5.62;68.29
74529;BME280;63009;52.584;5.932;2023-01-28T11:24:24;103113.25;;;5.81;69.33
74529;BME280;63009;52.584;5.932;2023-01-28T11:26:52;103122.00;;;5.81;67.73
74529;BME280;63009;52.584;5.932;2023-01-28T11:29:31;103128.09;;;6.06;69.54
74529;BME280;63009;52.584;5.932;2023-01-28T11:31:59;103124.59;;;6.07;67.58
74529;BME280;63009;52.584;5.932;2023-01-28T11:34:29;103128.09;;;6.09;67.68
74529;BME280;63009;52.584;5.932;2023-01-28T11:37:09;103117.53;;;6.23;69.17
74529;BME280;63009;52.584;5.932;2023-01-28T11:39:36;103126.22;;;6.39;67.72
74529;BME280;63009;52.584;5.932;2023-01-28T11:42:09;103131.44;;;6.43;66.32
74529;BME280;63009;52.584;5.932;2023-01-28T11:44:35;103122.72;;;6.41;65.31
74529;BME280;63009;52.584;5.932;2023-01-28T12:00:31;103135.50;;;7.01;68.32
74529;BME280;63009;52.584;5.932;2023-01-28T12:03:27;103149.47;;;7.09;66.84
74529;BME280;63009;52.584;5.932;2023-01-28T12:11:38;103123.34;;;6.84;68.82
74529;BME280;63009;52.584;5.932;2023-01-28T12:20:04;103125.22;;;6.64;67.38
74529;BME280;63009;52.584;5.932;2023-01-28T12:22:43;103127.09;;;6.33;67.48
74529;BME280;63009;52.584;5.932;2023-01-28T12:25:32;103125.31;;;6.44;69.94
74529;BME280;63009;52.584;5.932;2023-01-28T12:28:20;103126.19;;;6.42;68.68
74529;BME280;63009;52.584;5.932;2023-01-28T12:31:17;103113.06;;;6.43;70.40
74529;BME280;63009;52.584;5.932;2023-01-28T12:39:25;103095.59;;;6.33;69.76
74529;BME280;63009;52.584;5.932;2023-01-28T12:44:49;103066.81;;;6.10;68.63
74529;BME280;63009;52.584;5.932;2023-01-28T12:47:21;103059.84;;;6.06;70.07
74529;BME280;63009;52.584;5.932;2023-01-28T12:49:58;103049.34;;;6.02;71.14
74529;BME280;63009;52.584;5.932;2023-01-28T12:52:34;103051.09;;;6.01;71.32
74529;BME280;63009;52.584;5.932;2023-01-28T12:55:10;103053.78;;;5.93;69.95
74529;BME280;63009;52.584;5.932;2023-01-28T12:57:39;103053.78;;;5.93;70.50
74529;BME280;63009;52.584;5.932;2023-01-28T13:00:33;103051.09;;;5.89;70.70
74529;BME280;63009;52.584;5.932;2023-01-28T13:03:17;103050.28;;;5.79;70.61
74529;BME280;63009;52.584;5.932;2023-01-28T13:05:50;103038.97;;;5.63;70.85
74529;BME280;63009;52.584;5.932;2023-01-28T13:08:22;103045.97;;;5.64;71.89
74529;BME280;63009;52.584;5.932;2023-01-28T13:10:48;103045.09;;;5.58;72.12
74529;BME280;63009;52.584;5.932;2023-01-28T13:15:46;103061.72;;;5.49;71.89
74529;BME280;63009;52.584;5.932;2023-01-28T13:18:30;103056.47;;;5.48;73.23
74529;BME280;63009;52.584;5.932;2023-01-28T13:20:57;103071.34;;;5.41;73.37
74529;BME280;63009;52.584;5.932;2023-01-28T13:23:42;103068.75;;;5.21;73.31
74529;BME280;63009;52.584;5.932;2023-01-28T13:26:11;103063.47;;;5.20;74.47
74529;BME280;63009;52.584;5.932;2023-01-28T13:28:51;103069.63;;;5.13;76.26
74529;BME280;63009;52.584;5.932;2023-01-28T13:31:19;103062.59;;;5.18;75.07
74529;BME280;63009;52.584;5.932;2023-01-28T13:36:28;103056.50;;;5.03;75.15
74529;BME280;63009;52.584;5.932;2023-01-28T13:39:05;103058.25;;;4.98;74.80
74529;BME280;63009;52.584;5.932;2023-01-28T13:41:40;103050.38;;;4.89;74.63
74529;BME280;63009;52.584;5.932;2023-01-28T13:44:20;103052.13;;;4.86;75.78
74529;BME280;63009;52.584;5.932;2023-01-28T13:46:53;103059.13;;;4.81;75.70
74529;BME280;63009;52.584;5.932;2023-01-28T13:49:25;103052.09;;;4.72;76.49
74529;BME280;63009;52.584;5.932;2023-01-28T13:52:04;103060.84;;;4.68;76.59
74529;BME280;63009;52.584;5.932;2023-01-28T13:54:34;103054.72;;;4.57;76.84
74529;BME280;63009;52.584;5.932;2023-01-28T14:00:17;103065.16;;;4.44;77.42
74529;BME280;63009;52.584;5.932;2023-01-28T14:05:25;103072.13;;;4.42;77.46
74529;BME280;63009;52.584;5.932;2023-01-28T14:11:13;103052.88;;;4.24;77.71
74529;BME280;63009;52.584;5.932;2023-01-28T14:13:50;103065.09;;;4.29;78.76
74529;BME280;63009;52.584;5.932;2023-01-28T14:16:35;103052.84;;;4.22;78.56
74529;BME280;63009;52.584;5.932;2023-01-28T14:19:02;103052.88;;;4.25;78.86
74529;BME280;63009;52.584;5.932;2023-01-28T14:21:33;103049.41;;;4.28;79.20
74529;BME280;63009;52.584;5.932;2023-01-28T14:23:59;103045.94;;;4.38;80.36
74529;BME280;63009;52.584;5.932;2023-01-28T14:29:18;103043.31;;;4.50;80.31
74529;BME280;63009;52.584;5.932;2023-01-28T14:31:47;103037.22;;;4.50;79.83
74529;BME280;63009;52.584;5.932;2023-01-28T14:34:18;103050.34;;;4.54;80.24